createdAt,value
2023-03-12T00:02:14.123Z,1.73
2023-03-12T00:04:42.135Z,1.66
2023-03-12T00:07:10.147Z,1.68
2023-03-12T00:09:38.462Z,1.77
2023-03-12T00:12:07.529Z,1.71
2023-03-12T00:14:35.534Z,1.57
2023-03-12T00:17:03.878Z,1.62
2023-03-12T00:19:33.280Z,1.75
2023-03-12T00:22:01.642Z,1.78
2023-03-12T00:24:30.908Z,1.77
2023-03-12T00:26:58.893Z,1.80
2023-03-12T00:29:26.958Z,1.76
2023-03-12T00:31:55.360Z,1.75
2023-03-12T00:34:23.405Z,1.73
2023-03-12T00:36:52.848Z,1.76
2023-03-12T00:39:20.898Z,1.73
2023-03-12T00:41:48.953Z,1.79
2023-03-12T00:44:17.310Z,1.71
2023-03-12T00:46:45.420Z,1.68
2023-03-12T00:49:13.447Z,1.76
2023-03-12T00:51:41.506Z,1.64
2023-03-12T00:54:10.882Z,1.73
2023-03-12T00:56:39.353Z,1.64
2023-03-12T00:59:07.413Z,1.52
2023-03-12T01:01:35.454Z,1.65
2023-03-12T01:04:04.105Z,1.78
2023-03-12T01:06:32.146Z,1.68
2023-03-12T01:09:00.198Z,1.58
2023-03-12T01:11:29.609Z,1.67
2023-03-12T01:13:58.018Z,1.63
2023-03-12T01:16:28.267Z,1.70
2023-03-12T01:18:56.522Z,1.68
2023-03-12T01:21:24.885Z,1.63
2023-03-12T01:23:52.956Z,1.75
2023-03-12T01:26:20.948Z,1.54
2023-03-12T01:28:53.806Z,1.75
2023-03-12T01:31:21.912Z,1.76
2023-03-12T01:33:50.239Z,1.68
2023-03-12T01:36:19.384Z,1.63
2023-03-12T01:38:47.553Z,1.70
2023-03-12T01:41:15.579Z,1.68
2023-03-12T01:43:43.926Z,1.56
2023-03-12T01:46:25.175Z,1.56
2023-03-12T01:48:56.148Z,1.62
2023-03-12T01:51:25.022Z,1.59
2023-03-12T01:53:54.296Z,1.62
2023-03-12T01:56:22.357Z,1.70
2023-03-12T01:58:52.346Z,1.57
2023-03-12T02:01:21.812Z,1.62
2023-03-12T02:03:50.426Z,1.70
2023-03-12T02:06:18.456Z,1.64
2023-03-12T02:08:46.968Z,1.92
2023-03-12T02:11:15.014Z,1.61
2023-03-12T02:13:43.149Z,1.65
2023-03-12T02:16:11.254Z,1.84
2023-03-12T02:18:40.793Z,1.82
2023-03-12T02:21:13.270Z,1.89
2023-03-12T02:23:43.979Z,1.79
2023-03-12T02:26:13.537Z,1.87
2023-03-12T02:28:44.308Z,1.82
2023-03-12T02:31:13.288Z,1.79
2023-03-12T02:33:41.595Z,1.76
2023-03-12T02:36:10.426Z,1.78
2023-03-12T02:38:41.213Z,1.81
2023-03-12T02:41:15.223Z,1.74
2023-03-12T02:43:44.093Z,1.69
2023-03-12T02:46:12.166Z,1.75
2023-03-12T02:48:41.208Z,1.83
2023-03-12T02:51:09.245Z,1.80
2023-03-12T02:53:37.271Z,1.62
2023-03-12T02:56:05.901Z,1.77
2023-03-12T02:58:35.287Z,1.84
2023-03-12T03:01:03.401Z,1.82
2023-03-12T03:03:32.999Z,1.99
2023-03-12T03:06:00.995Z,1.88
2023-03-12T03:08:29.002Z,1.98
2023-03-12T03:10:57.397Z,2.01
2023-03-12T03:13:25.403Z,1.92
2023-03-12T03:15:54.956Z,1.99
2023-03-12T03:18:23.103Z,1.91
2023-03-12T03:20:56.627Z,1.99
2023-03-12T03:23:24.631Z,2.03
2023-03-12T03:25:53.697Z,1.96
2023-03-12T03:28:21.723Z,1.83
2023-03-12T03:30:49.783Z,1.85
2023-03-12T03:33:19.600Z,1.87
2023-03-12T03:35:48.740Z,2.00
2023-03-12T03:38:16.944Z,1.98
2023-03-12T03:40:45.001Z,1.91
2023-03-12T03:43:13.044Z,1.95
2023-03-12T03:45:41.016Z,1.74
2023-03-12T03:48:09.077Z,1.65
2023-03-12T03:50:38.462Z,1.69
2023-03-12T03:53:06.542Z,1.94
2023-03-12T03:55:37.484Z,1.93
2023-03-12T03:58:05.516Z,2.05
2023-03-12T04:00:35.866Z,1.88
2023-03-12T04:03:03.931Z,1.79
2023-03-12T04:05:32.076Z,1.94
2023-03-12T04:08:03.287Z,2.10
2023-03-12T04:10:31.541Z,2.19
2023-03-12T04:12:59.684Z,2.02
2023-03-12T04:15:27.792Z,1.96
2023-03-12T04:17:55.858Z,2.04
2023-03-12T04:20:23.898Z,1.90
2023-03-12T04:22:51.911Z,1.90
2023-03-12T04:25:21.313Z,1.91
2023-03-12T04:27:49.416Z,1.85
2023-03-12T04:30:17.596Z,1.77
2023-03-12T04:32:45.668Z,1.90
2023-03-12T04:35:13.687Z,1.83
2023-03-12T04:37:41.775Z,1.76
2023-03-12T04:40:12.231Z,1.79
2023-03-12T04:42:41.687Z,1.75
2023-03-12T04:45:11.395Z,1.86
2023-03-12T04:47:39.857Z,1.81
2023-03-12T04:50:08.779Z,1.82
2023-03-12T04:52:36.813Z,1.85
2023-03-12T04:55:05.146Z,1.78
2023-03-12T04:57:33.134Z,1.69
2023-03-12T05:00:02.642Z,1.88
2023-03-12T05:02:30.707Z,2.00
2023-03-12T05:04:58.920Z,1.77
2023-03-12T05:07:26.955Z,1.92
2023-03-12T05:09:54.992Z,1.84
2023-03-12T05:12:23.044Z,2.10
2023-03-12T05:14:51.208Z,1.90
2023-03-12T05:17:20.662Z,1.98
2023-03-12T05:19:48.756Z,1.91
2023-03-12T05:22:16.854Z,1.85
2023-03-12T05:24:44.829Z,2.18
2023-03-12T05:27:12.906Z,1.92
2023-03-12T05:29:40.909Z,1.83
2023-03-12T05:32:09.929Z,1.76
2023-03-12T05:34:40.072Z,1.88
2023-03-12T05:37:08.544Z,1.79
2023-03-12T05:39:37.372Z,1.88
2023-03-12T05:42:05.980Z,1.82
2023-03-12T05:44:35.528Z,1.81
2023-03-12T05:47:03.578Z,1.67
2023-03-12T05:49:31.649Z,1.90
2023-03-12T05:52:01.061Z,1.79
2023-03-12T05:54:29.281Z,1.67
2023-03-12T05:56:57.782Z,1.82
2023-03-12T05:59:25.848Z,1.57
2023-03-12T06:01:53.844Z,1.62
2023-03-12T06:04:22.128Z,1.78
2023-03-12T06:06:50.589Z,1.60
2023-03-12T06:09:20.027Z,1.63
2023-03-12T06:11:48.162Z,1.59
2023-03-12T06:14:16.195Z,1.84
2023-03-12T06:16:44.339Z,1.63
2023-03-12T06:19:14.141Z,1.56
2023-03-12T06:21:43.939Z,1.62
2023-03-12T06:24:11.987Z,1.82
2023-03-12T06:26:41.578Z,1.76
2023-03-12T06:29:09.614Z,1.68
2023-03-12T06:31:39.782Z,1.85
2023-03-12T06:34:07.825Z,1.67
2023-03-12T06:36:36.588Z,1.78
2023-03-12T06:39:08.279Z,1.80
2023-03-12T06:41:36.355Z,1.89
2023-03-12T06:44:06.637Z,1.69
2023-03-12T06:46:34.934Z,1.69
2023-03-12T06:49:03.107Z,1.50
2023-03-12T06:51:31.203Z,1.74
2023-03-12T06:54:01.100Z,1.56
2023-03-12T06:56:29.240Z,1.60
2023-03-12T06:58:57.250Z,1.60
2023-03-12T07:01:26.753Z,1.56
2023-03-12T07:03:54.712Z,1.63
2023-03-12T07:06:24.101Z,1.68
2023-03-12T07:08:52.139Z,1.67
2023-03-12T07:11:20.207Z,1.73
2023-03-12T07:13:48.314Z,1.72
2023-03-12T07:16:16.389Z,1.62
2023-03-12T07:18:46.339Z,1.72
2023-03-12T07:21:16.676Z,1.57
2023-03-12T07:23:44.755Z,1.71
2023-03-12T07:26:12.803Z,1.67
2023-03-12T07:28:40.905Z,1.61
2023-03-12T07:31:08.909Z,1.61
2023-03-12T07:33:37.044Z,1.74
2023-03-12T07:36:08.185Z,1.61
2023-03-12T07:38:36.388Z,1.65
2023-03-12T07:41:04.571Z,1.64
2023-03-12T07:43:33.094Z,1.83
2023-03-12T07:46:01.371Z,1.96
2023-03-12T07:48:29.900Z,1.77
2023-03-12T07:50:57.958Z,1.77
2023-03-12T07:53:27.350Z,1.72
2023-03-12T07:55:56.313Z,1.71
2023-03-12T07:58:24.497Z,1.78
2023-03-12T08:00:53.819Z,1.76
2023-03-12T08:03:22.001Z,1.63
2023-03-12T08:05:57.621Z,1.82
2023-03-12T08:08:27.371Z,1.86
2023-03-12T08:10:56.006Z,1.75
2023-03-12T08:13:24.492Z,1.84
2023-03-12T08:15:53.018Z,1.77
2023-03-12T08:18:21.641Z,1.79
2023-03-12T08:20:51.523Z,1.85
2023-03-12T08:23:19.592Z,1.81
2023-03-12T08:25:48.981Z,1.97
2023-03-12T08:28:17.096Z,2.00
2023-03-12T08:30:47.533Z,2.05
2023-03-12T08:33:15.603Z,2.00
2023-03-12T08:35:43.714Z,1.98
2023-03-12T08:38:11.862Z,2.16
2023-03-12T08:40:39.917Z,2.12
2023-03-12T08:43:09.481Z,2.04
2023-03-12T08:45:37.553Z,2.09
2023-03-12T08:48:06.615Z,2.24
2023-03-12T08:50:35.098Z,2.30
2023-03-12T08:53:04.132Z,2.21
2023-03-12T08:55:32.216Z,2.41
2023-03-12T08:58:00.333Z,2.42
2023-03-12T09:00:30.272Z,2.29
2023-03-12T09:02:58.577Z,2.24
2023-03-12T09:05:28.168Z,2.45
2023-03-12T09:07:56.625Z,2.38
2023-03-12T09:10:24.663Z,2.48
2023-03-12T09:12:52.827Z,2.51
2023-03-12T09:15:21.140Z,2.56
2023-03-12T09:17:50.887Z,2.52
2023-03-12T09:20:19.335Z,2.64
2023-03-12T09:22:47.361Z,2.50
2023-03-12T09:25:15.562Z,2.66
2023-03-12T09:27:44.712Z,2.57
2023-03-12T09:30:14.242Z,2.61
2023-03-12T09:32:42.298Z,2.67
2023-03-12T09:35:11.780Z,2.82
2023-03-12T09:37:39.836Z,3.06
2023-03-12T09:40:09.831Z,2.74
2023-03-12T09:42:40.784Z,2.83
2023-03-12T09:45:09.412Z,2.91
2023-03-12T09:47:38.874Z,3.06
2023-03-12T09:50:09.133Z,3.13
2023-03-12T09:52:40.857Z,3.15
2023-03-12T09:55:10.530Z,3.20
2023-03-12T09:57:38.586Z,3.11
2023-03-12T10:00:08.738Z,3.30
2023-03-12T10:03:15.487Z,3.21
2023-03-12T10:05:46.493Z,3.27
2023-03-12T10:08:24.392Z,3.41
2023-03-12T10:10:59.506Z,3.53
2023-03-12T10:13:39.839Z,3.43
2023-03-12T10:16:13.511Z,3.54
2023-03-12T10:18:54.105Z,3.71
2023-03-12T10:21:24.002Z,3.51
2023-03-12T10:24:01.432Z,3.67
2023-03-12T10:26:32.208Z,3.60
2023-03-12T10:29:01.795Z,3.73
2023-03-12T10:31:32.267Z,3.81
2023-03-12T10:34:00.983Z,4.00
2023-03-12T10:36:30.748Z,3.99
2023-03-12T10:39:00.366Z,3.96
2023-03-12T10:41:34.161Z,3.95
2023-03-12T10:44:04.984Z,4.13
2023-03-12T10:46:51.631Z,4.12
2023-03-12T10:49:25.761Z,4.16
2023-03-12T10:51:58.091Z,4.19
2023-03-12T10:54:31.577Z,4.31
2023-03-12T10:56:59.626Z,4.44
2023-03-12T10:59:31.114Z,4.48
2023-03-12T11:01:59.259Z,4.54
2023-03-12T11:04:30.084Z,4.72
2023-03-12T11:07:16.921Z,4.44
2023-03-12T11:09:46.372Z,4.50
2023-03-12T11:12:28.111Z,4.77
2023-03-12T11:14:56.123Z,4.73
2023-03-12T11:17:25.274Z,4.84
2023-03-12T11:19:56.154Z,5.03
2023-03-12T11:22:31.785Z,5.13
2023-03-12T11:25:02.090Z,4.92
2023-03-12T11:27:38.434Z,5.09
2023-03-12T11:30:07.554Z,5.34
2023-03-12T11:32:37.147Z,5.20
2023-03-12T11:35:10.047Z,5.32
2023-03-12T11:37:45.481Z,5.43
2023-03-12T11:40:33.092Z,5.57
2023-03-12T11:43:36.077Z,5.70
2023-03-12T11:46:13.951Z,5.75
2023-03-12T11:48:46.782Z,5.89
2023-03-12T11:51:21.458Z,5.94
2023-03-12T11:53:57.264Z,6.04
2023-03-12T11:56:28.446Z,6.00
2023-03-12T11:59:05.523Z,6.20
2023-03-12T12:01:39.542Z,6.26
2023-03-12T12:04:49.133Z,6.39
2023-03-12T12:07:20.659Z,6.32
2023-03-12T12:09:51.470Z,6.51
2023-03-12T12:12:28.579Z,6.47
2023-03-12T12:15:01.779Z,6.46
2023-03-12T12:17:36.721Z,6.61
2023-03-12T12:20:16.470Z,6.65
2023-03-12T12:22:50.415Z,6.62
2023-03-12T12:25:32.527Z,6.73
2023-03-12T12:28:35.973Z,6.72
2023-03-12T12:31:32.114Z,6.70
2023-03-12T12:34:14.444Z,6.82
2023-03-12T12:36:43.224Z,6.81
2023-03-12T12:39:12.874Z,7.07
2023-03-12T12:41:41.988Z,7.04
2023-03-12T12:44:12.647Z,6.98
2023-03-12T12:46:43.540Z,7.17
2023-03-12T12:49:13.140Z,7.20
2023-03-12T12:51:42.902Z,7.17
2023-03-12T12:54:16.621Z,7.27
2023-03-12T12:56:47.529Z,7.19
2023-03-12T12:59:28.677Z,7.25
2023-03-12T13:01:58.390Z,7.34
2023-03-12T13:04:27.695Z,7.24
2023-03-12T13:07:00.255Z,7.45
2023-03-12T13:09:39.429Z,7.56
2023-03-12T13:12:16.044Z,7.52
2023-03-12T13:14:44.391Z,7.56
2023-03-12T13:17:30.954Z,7.53
2023-03-12T13:20:13.724Z,7.69
2023-03-12T13:23:02.392Z,7.88
2023-03-12T13:25:43.433Z,8.16
2023-03-12T13:28:35.957Z,8.37
2023-03-12T13:31:08.627Z,8.43
2023-03-12T13:33:45.455Z,8.56
2023-03-12T13:36:24.440Z,8.67
2023-03-12T13:38:58.488Z,8.58
2023-03-12T13:41:34.777Z,8.84
2023-03-12T13:44:03.614Z,8.90
2023-03-12T13:46:42.565Z,9.06
2023-03-12T13:49:21.010Z,9.26
2023-03-12T13:52:01.629Z,9.13
2023-03-12T13:54:33.260Z,9.20
2023-03-12T13:57:03.027Z,9.27
2023-03-12T13:59:32.403Z,9.33
2023-03-12T14:02:04.403Z,9.31
2023-03-12T14:04:36.755Z,9.46
2023-03-12T14:07:55.418Z,9.12
2023-03-12T14:10:31.825Z,9.28
2023-03-12T14:13:05.593Z,9.20
2023-03-12T14:15:35.570Z,9.22
2023-03-12T14:18:05.921Z,9.21
2023-03-12T14:20:35.405Z,9.36
2023-03-12T14:23:05.742Z,9.42
2023-03-12T14:25:35.373Z,9.41
2023-03-12T14:28:03.748Z,9.50
2023-03-12T14:30:37.950Z,9.35
2023-03-12T14:33:06.004Z,9.39
2023-03-12T14:35:38.664Z,9.50
2023-03-12T14:38:08.481Z,9.45
2023-03-12T14:40:39.699Z,9.65
2023-03-12T14:43:21.580Z,9.63
2023-03-12T14:45:52.050Z,9.64
2023-03-12T14:48:24.088Z,9.70
2023-03-12T14:50:53.428Z,9.65
2023-03-12T14:53:24.602Z,9.68
2023-03-12T14:56:07.923Z,9.70
2023-03-12T14:58:36.904Z,9.78
2023-03-12T15:01:05.851Z,9.70
2023-03-12T15:03:37.936Z,9.68
2023-03-12T15:06:12.758Z,9.71
2023-03-12T15:08:40.895Z,9.69
2023-03-12T15:11:09.390Z,9.65
2023-03-12T15:13:38.242Z,9.64
2023-03-12T15:16:07.115Z,9.51
2023-03-12T15:18:35.784Z,9.60
2023-03-12T15:21:03.843Z,9.59
2023-03-12T15:23:34.166Z,9.54
2023-03-12T15:26:13.016Z,9.49
2023-03-12T15:28:41.204Z,9.51
2023-03-12T15:31:15.102Z,9.56
2023-03-12T15:33:43.277Z,9.61
2023-03-12T15:36:24.569Z,9.65
2023-03-12T15:38:54.983Z,9.77
2023-03-12T15:41:24.075Z,9.83
2023-03-12T15:43:53.973Z,9.67
2023-03-12T15:46:22.092Z,9.87
2023-03-12T15:48:51.412Z,9.78
2023-03-12T15:51:31.363Z,9.89
2023-03-12T15:54:21.516Z,9.66
2023-03-12T15:56:49.830Z,9.77
2023-03-12T15:59:22.042Z,9.93
2023-03-12T16:01:50.369Z,9.69
2023-03-12T16:04:19.938Z,9.79
2023-03-12T16:06:49.802Z,10.05
2023-03-12T16:09:19.991Z,10.01
2023-03-12T16:11:48.051Z,9.99
2023-03-12T16:14:18.777Z,9.95
2023-03-12T16:16:48.597Z,9.88
2023-03-12T16:19:16.844Z,10.03
2023-03-12T16:21:45.017Z,9.97
2023-03-12T16:24:13.374Z,9.85
2023-03-12T16:26:47.688Z,9.92
2023-03-12T16:29:16.719Z,9.83
2023-03-12T16:31:45.398Z,9.93
2023-03-12T16:34:13.605Z,9.69
2023-03-12T16:36:41.607Z,9.64
2023-03-12T16:39:10.039Z,9.61
2023-03-12T16:41:38.378Z,9.62
2023-03-12T16:44:08.080Z,9.67
2023-03-12T16:46:36.553Z,9.62
2023-03-12T16:49:05.018Z,9.76
2023-03-12T16:51:33.145Z,9.69
2023-03-12T16:54:10.345Z,9.62
2023-03-12T16:56:39.310Z,9.47
2023-03-12T16:59:14.434Z,9.49
2023-03-12T17:01:43.078Z,9.45
2023-03-12T17:04:11.971Z,9.45
2023-03-12T17:06:41.557Z,9.40
2023-03-12T17:09:09.846Z,9.29
2023-03-12T17:11:37.945Z,9.45
2023-03-12T17:14:09.161Z,9.27
2023-03-12T17:16:37.552Z,9.38
2023-03-12T17:19:05.762Z,9.32
2023-03-12T17:21:33.933Z,9.24
2023-03-12T17:24:01.907Z,9.44
2023-03-12T17:26:32.755Z,9.37
2023-03-12T17:29:01.168Z,9.35
2023-03-12T17:31:35.844Z,9.29
2023-03-12T17:34:07.396Z,9.26
2023-03-12T17:36:37.929Z,9.29
2023-03-12T17:39:07.881Z,9.35
2023-03-12T17:41:47.908Z,9.33
2023-03-12T17:44:16.462Z,9.19
2023-03-12T17:46:58.339Z,9.08
2023-03-12T17:49:28.936Z,9.15
2023-03-12T17:51:57.442Z,9.13
2023-03-12T17:54:25.483Z,9.07
2023-03-12T17:56:53.509Z,9.14
2023-03-12T17:59:21.707Z,9.19
2023-03-12T18:01:51.559Z,9.13
2023-03-12T18:04:19.693Z,9.06
2023-03-12T18:06:47.965Z,9.11
2023-03-12T18:09:15.966Z,9.20
2023-03-12T18:11:44.779Z,9.15
2023-03-12T18:14:12.758Z,9.07
2023-03-12T18:16:40.796Z,9.04
2023-03-12T18:19:10.526Z,9.10
2023-03-12T18:21:38.701Z,9.13
2023-03-12T18:24:14.083Z,9.14
2023-03-12T18:26:42.811Z,9.06
2023-03-12T18:29:11.164Z,9.13
2023-03-12T18:31:39.708Z,9.08
2023-03-12T18:34:07.937Z,9.15
2023-03-12T18:36:37.415Z,9.18
2023-03-12T18:39:06.513Z,9.08
2023-03-12T18:41:36.435Z,9.19
2023-03-12T18:44:05.042Z,9.08
2023-03-12T18:46:33.191Z,9.15
2023-03-12T18:49:05.165Z,9.11
2023-03-12T18:51:33.459Z,9.17
2023-03-12T18:54:03.012Z,9.17
2023-03-12T18:56:31.011Z,9.17
2023-03-12T18:58:59.048Z,9.08
2023-03-12T19:01:27.483Z,9.11
2023-03-12T19:03:55.676Z,9.13
2023-03-12T19:06:23.704Z,9.19
2023-03-12T19:08:52.460Z,9.19
2023-03-12T19:11:21.928Z,9.11
2023-03-12T19:13:52.155Z,9.13
2023-03-12T19:16:21.924Z,9.28
2023-03-12T19:18:50.150Z,9.16
2023-03-12T19:21:18.315Z,9.13
2023-03-12T19:23:46.301Z,9.10
2023-03-12T19:26:15.501Z,9.18
2023-03-12T19:28:46.919Z,9.18
2023-03-12T19:31:15.526Z,9.05
2023-03-12T19:33:43.979Z,9.10
2023-03-12T19:36:12.256Z,9.04
2023-03-12T19:38:40.525Z,9.09
2023-03-12T19:41:09.143Z,8.99
2023-03-12T19:43:37.310Z,8.97
2023-03-12T19:46:06.856Z,8.97
2023-03-12T19:48:35.006Z,9.01
2023-03-12T19:51:06.528Z,8.92
2023-03-12T19:53:34.700Z,9.09
2023-03-12T19:56:02.743Z,9.02
2023-03-12T19:58:30.822Z,9.07
2023-03-12T20:00:59.984Z,9.15
2023-03-12T20:03:29.474Z,9.09
2023-03-12T20:05:57.597Z,9.11
2023-03-12T20:08:27.983Z,9.15
2023-03-12T20:11:02.916Z,9.14
2023-03-12T20:13:31.045Z,9.07
2023-03-12T20:15:59.071Z,9.03
2023-03-12T20:18:27.248Z,9.13
2023-03-12T20:20:56.730Z,9.08
2023-03-12T20:23:24.753Z,9.04
2023-03-12T20:25:52.757Z,9.06
2023-03-12T20:28:20.786Z,9.09
2023-03-12T20:30:49.202Z,9.08
2023-03-12T20:33:17.318Z,9.10
2023-03-12T20:35:45.360Z,8.99
2023-03-12T20:38:14.850Z,8.98
2023-03-12T20:40:46.491Z,8.94
2023-03-12T20:43:14.661Z,9.02
2023-03-12T20:45:43.062Z,8.94
2023-03-12T20:48:11.649Z,8.89
2023-03-12T20:50:40.085Z,8.87
2023-03-12T20:53:08.392Z,8.78
2023-03-12T20:55:39.009Z,8.70
2023-03-12T20:58:07.128Z,8.67
2023-03-12T21:00:35.272Z,8.70
2023-03-12T21:03:03.935Z,8.65
2023-03-12T21:05:32.364Z,8.72
2023-03-12T21:08:00.671Z,8.67
2023-03-12T21:10:30.482Z,8.56
2023-03-12T21:13:05.068Z,8.65
2023-03-12T21:15:34.033Z,8.57
2023-03-12T21:18:02.060Z,8.54
2023-03-12T21:20:30.237Z,8.54
2023-03-12T21:22:58.971Z,8.55
2023-03-12T21:25:27.129Z,8.56
2023-03-12T21:27:57.018Z,8.47
2023-03-12T21:30:26.542Z,8.55
2023-03-12T21:32:54.686Z,8.57
2023-03-12T21:35:22.753Z,8.62
2023-03-12T21:37:50.992Z,8.62
2023-03-12T21:40:19.615Z,8.59
2023-03-12T21:42:48.289Z,8.72
2023-03-12T21:45:16.340Z,8.51
2023-03-12T21:47:46.486Z,8.50
2023-03-12T21:50:16.716Z,8.49
2023-03-12T21:52:49.106Z,8.59
2023-03-12T21:55:17.342Z,8.74
2023-03-12T21:57:46.248Z,8.55
2023-03-12T22:00:14.906Z,8.59
2023-03-12T22:02:43.299Z,8.57
2023-03-12T22:05:12.890Z,8.53
2023-03-12T22:07:40.989Z,8.54
2023-03-12T22:10:12.064Z,8.39
2023-03-12T22:12:40.513Z,8.50
2023-03-12T22:15:10.027Z,8.47
2023-03-12T22:17:38.105Z,8.38
2023-03-12T22:20:08.037Z,8.32
2023-03-12T22:22:37.855Z,8.36
2023-03-12T22:25:06.606Z,8.36
2023-03-12T22:27:34.851Z,8.40
2023-03-12T22:30:03.368Z,8.37
2023-03-12T22:32:34.735Z,8.29
2023-03-12T22:35:03.196Z,8.37
2023-03-12T22:37:31.492Z,8.38
2023-03-12T22:40:01.678Z,8.29
2023-03-12T22:42:29.986Z,8.35
2023-03-12T22:44:58.061Z,8.22
2023-03-12T22:47:26.027Z,8.26
2023-03-12T22:49:54.082Z,8.28
2023-03-12T22:52:22.358Z,8.33
2023-03-12T22:54:51.462Z,8.29
2023-03-12T22:57:21.377Z,8.31
2023-03-12T22:59:49.518Z,8.21
2023-03-12T23:02:17.677Z,8.33
2023-03-12T23:04:45.856Z,8.38
2023-03-12T23:07:17.359Z,8.33
2023-03-12T23:09:46.209Z,8.32
2023-03-12T23:12:14.192Z,8.29
2023-03-12T23:14:44.071Z,8.22
2023-03-12T23:17:12.104Z,8.32
2023-03-12T23:19:40.139Z,8.24
2023-03-12T23:22:08.148Z,8.27
2023-03-12T23:24:36.472Z,8.31
2023-03-12T23:27:05.252Z,8.29
2023-03-12T23:29:33.499Z,8.26
2023-03-12T23:32:02.984Z,8.35
2023-03-12T23:34:31.620Z,8.31
2023-03-12T23:36:59.798Z,8.43
2023-03-12T23:39:27.876Z,8.34
2023-03-12T23:41:56.339Z,8.42
2023-03-12T23:44:24.884Z,8.42
2023-03-12T23:46:52.863Z,8.49
2023-03-12T23:49:22.345Z,8.55
2023-03-12T23:51:50.365Z,8.63
2023-03-12T23:54:18.443Z,8.63
2023-03-12T23:56:46.893Z,8.65
2023-03-12T23:59:14.936Z,8.63
